createdAt,value
2019-02-25T00:00:11.483Z,98.80
2019-02-25T00:02:40.018Z,99.30
2019-02-25T00:05:08.958Z,99.70
2019-02-25T00:07:37.476Z,99.90
2019-02-25T00:10:08.836Z,99.90
2019-02-25T00:12:37.320Z,99.90
2019-02-25T00:15:08.234Z,99.90
2019-02-25T00:17:38.465Z,99.90
2019-02-25T00:20:12.051Z,99.90
2019-02-25T00:22:40.621Z,99.90
2019-02-25T00:25:10.822Z,99.90
2019-02-25T00:27:39.395Z,99.90
2019-02-25T00:30:11.271Z,99.90
2019-02-25T00:32:39.763Z,99.90
2019-02-25T00:35:08.360Z,99.90
2019-02-25T00:37:37.085Z,99.90
2019-02-25T00:40:07.481Z,99.90
2019-02-25T00:42:35.978Z,99.90
2019-02-25T00:45:07.661Z,99.90
2019-02-25T00:47:36.155Z,99.90
2019-02-25T00:50:10.438Z,99.90
2019-02-25T00:52:38.937Z,99.90
2019-02-25T00:55:08.337Z,99.90
2019-02-25T00:57:36.813Z,99.90
2019-02-25T01:00:19.325Z,99.90
2019-02-25T01:02:47.888Z,99.90
2019-02-25T01:05:16.908Z,99.90
2019-02-25T01:07:45.615Z,99.90
2019-02-25T01:10:14.806Z,99.90
2019-02-25T01:12:45.214Z,99.90
2019-02-25T01:15:14.152Z,99.90
2019-02-25T01:17:42.744Z,99.90
2019-02-25T01:20:18.345Z,99.90
2019-02-25T01:22:46.797Z,99.90
2019-02-25T01:25:18.973Z,99.90
2019-02-25T01:27:47.537Z,99.90
2019-02-25T01:30:18.172Z,99.90
2019-02-25T01:32:46.649Z,99.90
2019-02-25T01:35:16.471Z,99.90
2019-02-25T01:37:45.053Z,99.90
2019-02-25T01:40:15.104Z,99.90
2019-02-25T01:42:43.675Z,99.90
2019-02-25T01:45:20.113Z,99.90
2019-02-25T01:47:48.645Z,99.90
2019-02-25T01:50:17.147Z,99.90
2019-02-25T01:52:45.712Z,99.90
2019-02-25T01:55:14.437Z,99.90
2019-02-25T01:57:43.179Z,99.90
2019-02-25T02:00:14.324Z,99.90
2019-02-25T02:02:42.893Z,99.90
2019-02-25T02:05:11.656Z,99.90
2019-02-25T02:07:40.143Z,99.90
2019-02-25T02:10:11.444Z,99.90
2019-02-25T02:12:40.029Z,99.90
2019-02-25T02:15:11.954Z,99.90
2019-02-25T02:17:40.501Z,99.90
2019-02-25T02:20:11.908Z,99.90
2019-02-25T02:22:41.331Z,99.90
2019-02-25T02:25:11.248Z,99.90
2019-02-25T02:27:39.780Z,99.90
2019-02-25T02:30:14.006Z,99.90
2019-02-25T02:32:43.077Z,99.90
2019-02-25T02:35:11.742Z,99.90
2019-02-25T02:37:40.229Z,99.90
2019-02-25T02:40:10.940Z,99.90
2019-02-25T02:42:42.029Z,99.90
2019-02-25T02:45:13.608Z,99.90
2019-02-25T02:47:47.859Z,99.90
2019-02-25T02:50:18.968Z,99.90
2019-02-25T02:52:47.418Z,99.90
2019-02-25T02:55:15.952Z,99.90
2019-02-25T02:57:44.520Z,99.90
2019-02-25T03:00:15.441Z,99.90
2019-02-25T03:02:44.711Z,99.90
2019-02-25T03:05:15.799Z,99.90
2019-02-25T03:07:45.072Z,99.90
2019-02-25T03:10:16.226Z,99.90
2019-02-25T03:12:44.850Z,99.90
2019-02-25T03:15:16.259Z,99.90
2019-02-25T03:17:45.564Z,99.90
2019-02-25T03:20:14.532Z,99.90
2019-02-25T03:22:43.092Z,99.90
2019-02-25T03:25:16.045Z,99.90
2019-02-25T03:27:47.781Z,99.90
2019-02-25T03:30:17.791Z,99.90
2019-02-25T03:32:46.438Z,99.90
2019-02-25T03:35:15.218Z,99.90
2019-02-25T03:37:44.003Z,99.90
2019-02-25T03:40:17.911Z,99.90
2019-02-25T03:42:46.449Z,99.90
2019-02-25T03:45:16.383Z,99.90
2019-02-25T03:47:44.981Z,99.90
2019-02-25T03:50:13.821Z,99.90
2019-02-25T03:52:42.487Z,99.90
2019-02-25T03:55:15.814Z,99.90
2019-02-25T03:57:45.288Z,99.90
2019-02-25T04:00:16.548Z,99.90
2019-02-25T04:02:46.208Z,99.90
2019-02-25T04:05:14.788Z,99.90
2019-02-25T04:07:43.434Z,99.90
2019-02-25T04:10:13.647Z,99.90
2019-02-25T04:12:42.253Z,99.90
2019-02-25T04:15:21.618Z,99.90
2019-02-25T04:17:50.318Z,99.90
2019-02-25T04:20:18.892Z,99.90
2019-02-25T04:22:47.432Z,99.90
2019-02-25T04:25:15.932Z,99.90
2019-02-25T04:27:44.424Z,99.90
2019-02-25T04:30:15.522Z,99.90
2019-02-25T04:32:44.122Z,99.90
2019-02-25T04:35:13.521Z,99.90
2019-02-25T04:37:42.098Z,99.90
2019-02-25T04:40:12.683Z,99.90
2019-02-25T04:42:41.337Z,99.90
2019-02-25T04:45:15.551Z,99.90
2019-02-25T04:47:44.160Z,99.90
2019-02-25T04:50:13.295Z,99.90
2019-02-25T04:52:41.826Z,99.90
2019-02-25T04:55:11.723Z,99.90
2019-02-25T04:57:40.299Z,99.90
2019-02-25T05:00:19.604Z,99.90
2019-02-25T05:02:48.150Z,99.90
2019-02-25T05:05:16.635Z,99.90
2019-02-25T05:07:45.207Z,99.90
2019-02-25T05:10:15.710Z,99.90
2019-02-25T05:12:45.918Z,99.90
2019-02-25T05:15:16.071Z,99.90
2019-02-25T05:17:44.538Z,99.90
2019-02-25T05:20:13.103Z,99.90
2019-02-25T05:22:41.566Z,99.90
2019-02-25T05:25:11.722Z,99.90
2019-02-25T05:27:40.292Z,99.90
2019-02-25T05:30:12.027Z,99.90
2019-02-25T05:32:40.569Z,99.90
2019-02-25T05:35:10.979Z,99.90
2019-02-25T05:37:39.575Z,99.90
2019-02-25T05:40:13.257Z,99.90
2019-02-25T05:42:41.708Z,99.90
2019-02-25T05:45:10.739Z,99.90
2019-02-25T05:47:39.207Z,99.90
2019-02-25T05:50:16.082Z,99.90
2019-02-25T05:52:44.604Z,99.90
2019-02-25T05:55:14.507Z,99.90
2019-02-25T05:57:43.049Z,99.90
2019-02-25T06:00:18.731Z,99.90
2019-02-25T06:02:47.342Z,99.90
2019-02-25T06:05:15.979Z,99.90
2019-02-25T06:07:44.541Z,99.90
2019-02-25T06:10:13.842Z,99.90
2019-02-25T06:12:42.551Z,99.90
2019-02-25T06:15:13.797Z,99.90
2019-02-25T06:17:42.353Z,99.90
2019-02-25T06:20:13.169Z,99.90
2019-02-25T06:22:41.672Z,99.90
2019-02-25T06:25:12.302Z,99.90
2019-02-25T06:27:40.851Z,99.90
2019-02-25T06:30:22.710Z,99.90
2019-02-25T06:32:51.284Z,99.90
2019-02-25T06:35:20.041Z,99.90
2019-02-25T06:37:48.613Z,99.90
2019-02-25T06:40:20.984Z,99.90
2019-02-25T06:42:49.554Z,99.90
2019-02-25T06:45:26.864Z,99.90
2019-02-25T06:47:55.634Z,99.90
2019-02-25T06:50:24.151Z,99.90
2019-02-25T06:52:52.638Z,99.90
2019-02-25T06:55:21.273Z,99.90
2019-02-25T06:57:49.730Z,99.90
2019-02-25T07:00:21.401Z,99.90
2019-02-25T07:02:49.982Z,99.90
2019-02-25T07:05:31.949Z,99.90
2019-02-25T07:08:02.149Z,99.90
2019-02-25T07:10:41.223Z,99.90
2019-02-25T07:13:11.349Z,99.90
2019-02-25T07:15:57.468Z,99.90
2019-02-25T07:18:45.617Z,99.90
2019-02-25T07:21:15.720Z,99.90
2019-02-25T07:24:01.639Z,99.90
2019-02-25T07:26:31.746Z,99.90
2019-02-25T07:29:03.442Z,99.90
2019-02-25T07:31:39.683Z,99.90
2019-02-25T07:34:12.633Z,99.90
2019-02-25T07:36:42.780Z,99.90
2019-02-25T07:39:18.948Z,99.90
2019-02-25T07:41:57.738Z,99.90
2019-02-25T07:44:27.851Z,99.90
2019-02-25T07:47:06.716Z,99.90
2019-02-25T07:49:52.858Z,99.90
2019-02-25T07:52:37.833Z,99.90
2019-02-25T07:55:10.248Z,99.90
2019-02-25T07:57:46.110Z,99.90
2019-02-25T08:00:16.354Z,99.90
2019-02-25T08:02:46.488Z,99.90
2019-02-25T08:05:19.367Z,99.90
2019-02-25T08:08:05.431Z,99.90
2019-02-25T08:10:35.553Z,99.90
2019-02-25T08:13:08.619Z,99.90
2019-02-25T08:15:41.744Z,99.90
2019-02-25T08:18:17.644Z,99.90
2019-02-25T08:20:47.849Z,99.90
2019-02-25T08:23:32.789Z,99.90
2019-02-25T08:26:02.934Z,99.90
2019-02-25T08:28:33.096Z,99.50
2019-02-25T08:31:05.955Z,98.80
2019-02-25T08:33:47.746Z,98.00
2019-02-25T08:36:21.028Z,98.60
2019-02-25T08:39:06.367Z,97.90
2019-02-25T08:41:36.398Z,96.50
2019-02-25T08:44:12.565Z,95.90
2019-02-25T08:46:42.774Z,95.80
2019-02-25T08:49:15.627Z,96.50
2019-02-25T08:51:44.254Z,97.10
2019-02-25T08:54:12.836Z,97.70
2019-02-25T08:56:41.412Z,97.70
2019-02-25T08:59:09.886Z,97.20
2019-02-25T09:01:38.518Z,97.10
2019-02-25T09:04:07.045Z,96.40
2019-02-25T09:06:35.619Z,95.20
2019-02-25T09:09:05.818Z,94.70
2019-02-25T09:11:34.343Z,94.50
2019-02-25T09:14:03.172Z,94.00
2019-02-25T09:16:31.652Z,94.80
2019-02-25T09:19:00.213Z,95.00
2019-02-25T09:21:31.795Z,93.70
2019-02-25T09:23:58.963Z,93.90
2019-02-25T09:26:27.471Z,93.60
2019-02-25T09:28:57.348Z,93.20
2019-02-25T09:31:26.105Z,91.60
2019-02-25T09:33:54.773Z,91.20
2019-02-25T09:36:23.544Z,89.30
2019-02-25T09:38:53.595Z,87.50
2019-02-25T09:41:29.621Z,88.40
2019-02-25T09:43:52.268Z,86.20
2019-02-25T09:46:20.838Z,87.80
2019-02-25T09:48:49.370Z,90.30
2019-02-25T09:51:17.870Z,88.10
2019-02-25T09:53:46.424Z,88.20
2019-02-25T09:56:14.884Z,89.40
2019-02-25T09:58:43.377Z,87.20
2019-02-25T10:01:12.308Z,87.30
2019-02-25T10:03:40.760Z,88.10
2019-02-25T10:06:09.258Z,87.10
2019-02-25T10:08:37.797Z,85.60
2019-02-25T10:11:06.307Z,84.40
2019-02-25T10:13:34.837Z,84.50
2019-02-25T10:16:03.385Z,84.60
2019-02-25T10:18:31.942Z,86.10
2019-02-25T10:21:00.431Z,83.70
2019-02-25T10:23:28.989Z,83.70
2019-02-25T10:25:57.453Z,84.50
2019-02-25T10:28:25.937Z,80.00
2019-02-25T10:30:54.395Z,79.10
2019-02-25T10:33:22.891Z,77.30
2019-02-25T10:35:51.395Z,74.40
2019-02-25T10:38:21.530Z,71.90
2019-02-25T10:40:52.118Z,70.10
2019-02-25T10:43:20.362Z,68.70
2019-02-25T10:45:48.827Z,67.10
2019-02-25T10:48:19.350Z,67.20
2019-02-25T10:50:55.704Z,67.10
2019-02-25T10:53:19.851Z,66.20
2019-02-25T10:55:56.980Z,66.10
2019-02-25T10:58:27.042Z,64.80
2019-02-25T11:00:55.964Z,64.60
2019-02-25T11:03:24.452Z,63.10
2019-02-25T11:05:53.949Z,63.10
2019-02-25T11:08:23.306Z,62.60
2019-02-25T11:10:54.943Z,61.50
2019-02-25T11:13:23.493Z,63.30
2019-02-25T11:15:52.014Z,60.70
2019-02-25T11:18:22.461Z,60.20
2019-02-25T11:20:50.759Z,59.30
2019-02-25T11:23:19.472Z,58.30
2019-02-25T11:25:51.350Z,58.30
2019-02-25T11:28:25.148Z,57.00
2019-02-25T11:30:51.987Z,58.70
2019-02-25T11:33:22.482Z,56.70
2019-02-25T11:35:50.629Z,57.00
2019-02-25T11:38:19.157Z,56.10
2019-02-25T11:40:47.751Z,55.60
2019-02-25T11:43:18.615Z,55.50
2019-02-25T11:45:46.531Z,56.00
2019-02-25T11:48:15.261Z,55.90
2019-02-25T11:50:44.827Z,55.60
2019-02-25T11:53:13.441Z,55.20
2019-02-25T11:55:41.915Z,55.50
2019-02-25T11:58:10.490Z,54.90
2019-02-25T12:00:39.904Z,54.30
2019-02-25T12:03:08.493Z,54.70
2019-02-25T12:05:37.085Z,54.30
2019-02-25T12:08:05.595Z,53.90
2019-02-25T12:10:34.119Z,53.30
2019-02-25T12:13:02.582Z,54.20
2019-02-25T12:15:31.083Z,54.90
2019-02-25T12:17:59.547Z,54.80
2019-02-25T12:20:28.080Z,54.50
2019-02-25T12:22:56.567Z,55.10
2019-02-25T12:25:25.678Z,53.90
2019-02-25T12:27:54.183Z,54.30
2019-02-25T12:30:23.769Z,54.40
2019-02-25T12:32:52.406Z,53.70
2019-02-25T12:35:21.011Z,53.30
2019-02-25T12:37:49.503Z,53.40
2019-02-25T12:40:18.601Z,54.10
2019-02-25T12:42:47.079Z,53.10
2019-02-25T12:45:16.077Z,53.40
2019-02-25T12:47:44.649Z,53.30
2019-02-25T12:50:21.957Z,53.60
2019-02-25T12:52:50.798Z,53.80
2019-02-25T12:55:20.186Z,54.10
2019-02-25T12:57:48.649Z,53.30
2019-02-25T13:00:21.237Z,54.30
2019-02-25T13:02:49.875Z,53.60
2019-02-25T13:05:19.608Z,54.00
2019-02-25T13:07:48.243Z,54.10
2019-02-25T13:10:17.810Z,54.40
2019-02-25T13:12:46.510Z,54.80
2019-02-25T13:15:20.406Z,56.20
2019-02-25T13:17:48.977Z,56.40
2019-02-25T13:20:17.596Z,56.90
2019-02-25T13:23:05.522Z,57.00
2019-02-25T13:25:34.052Z,57.60
2019-02-25T13:28:04.244Z,58.50
2019-02-25T13:30:32.799Z,59.20
2019-02-25T13:33:01.333Z,59.80
2019-02-25T13:35:29.923Z,60.40
2019-02-25T13:37:58.542Z,61.10
2019-02-25T13:40:27.128Z,61.30
2019-02-25T13:42:55.710Z,61.10
2019-02-25T13:45:24.685Z,61.10
2019-02-25T13:47:53.223Z,60.80
2019-02-25T13:50:21.776Z,61.20
2019-02-25T13:52:50.311Z,61.50
2019-02-25T13:55:21.980Z,61.60
2019-02-25T13:57:50.607Z,61.90
2019-02-25T14:00:24.473Z,62.60
2019-02-25T14:02:53.104Z,62.60
2019-02-25T14:05:22.178Z,62.80
2019-02-25T14:07:50.811Z,62.90
2019-02-25T14:10:19.949Z,62.50
2019-02-25T14:12:48.579Z,62.80
2019-02-25T14:15:21.719Z,63.20
2019-02-25T14:17:50.430Z,62.50
2019-02-25T14:20:20.324Z,62.70
2019-02-25T14:22:49.048Z,63.30
2019-02-25T14:25:28.413Z,63.70
2019-02-25T14:27:57.284Z,64.80
2019-02-25T14:30:26.869Z,66.20
2019-02-25T14:32:56.209Z,66.70
2019-02-25T14:35:28.577Z,67.50
2019-02-25T14:38:02.820Z,68.20
2019-02-25T14:40:29.839Z,68.80
2019-02-25T14:42:59.825Z,69.80
2019-02-25T14:45:31.499Z,70.40
2019-02-25T14:48:02.001Z,71.00
2019-02-25T14:50:30.331Z,71.80
2019-02-25T14:53:00.713Z,72.20
2019-02-25T14:55:30.044Z,73.00
2019-02-25T14:58:02.138Z,73.60
2019-02-25T15:00:32.088Z,74.10
2019-02-25T15:02:59.323Z,74.90
2019-02-25T15:05:28.118Z,75.30
2019-02-25T15:07:57.335Z,76.00
2019-02-25T15:10:29.071Z,76.80
2019-02-25T15:12:58.670Z,77.60
2019-02-25T15:15:26.575Z,78.00
2019-02-25T15:17:55.223Z,78.50
2019-02-25T15:20:26.070Z,79.00
2019-02-25T15:22:54.177Z,79.60
2019-02-25T15:25:22.763Z,80.30
2019-02-25T15:27:51.335Z,80.70
2019-02-25T15:30:29.929Z,81.30
2019-02-25T15:32:58.930Z,82.20
2019-02-25T15:35:31.366Z,82.70
2019-02-25T15:38:00.089Z,83.10
2019-02-25T15:40:28.664Z,83.40
2019-02-25T15:43:13.251Z,83.80
2019-02-25T15:45:43.022Z,84.10
2019-02-25T15:48:17.316Z,84.50
2019-02-25T15:50:48.000Z,84.90
2019-02-25T15:53:16.433Z,85.50
2019-02-25T15:55:45.325Z,85.80
2019-02-25T15:58:14.439Z,85.80
2019-02-25T16:00:44.507Z,86.00
2019-02-25T16:03:13.714Z,86.20
2019-02-25T16:05:44.390Z,86.50
2019-02-25T16:08:16.149Z,86.90
2019-02-25T16:10:43.820Z,87.10
2019-02-25T16:13:14.231Z,87.50
2019-02-25T16:15:42.814Z,87.80
2019-02-25T16:18:13.787Z,88.30
2019-02-25T16:20:45.785Z,88.50
2019-02-25T16:23:13.028Z,89.10
2019-02-25T16:25:42.048Z,89.60
2019-02-25T16:28:12.574Z,89.80
2019-02-25T16:30:42.424Z,90.10
2019-02-25T16:33:12.657Z,90.70
2019-02-25T16:35:43.053Z,90.70
2019-02-25T16:38:11.488Z,90.80
2019-02-25T16:40:40.270Z,91.10
2019-02-25T16:43:12.086Z,91.60
2019-02-25T16:45:41.846Z,92.00
2019-02-25T16:48:10.172Z,92.40
2019-02-25T16:50:39.848Z,92.90
2019-02-25T16:53:10.905Z,93.20
2019-02-25T16:55:40.515Z,93.90
2019-02-25T16:58:12.895Z,94.40
2019-02-25T17:00:41.740Z,94.80
2019-02-25T17:03:11.206Z,95.50
2019-02-25T17:05:42.836Z,95.80
2019-02-25T17:08:12.762Z,96.40
2019-02-25T17:10:41.433Z,96.50
2019-02-25T17:13:10.902Z,97.00
2019-02-25T17:15:40.212Z,97.70
2019-02-25T17:18:09.035Z,98.20
2019-02-25T17:20:37.726Z,99.10
2019-02-25T17:23:09.502Z,99.60
2019-02-25T17:25:38.441Z,99.90
2019-02-25T17:28:08.198Z,99.90
2019-02-25T17:30:38.586Z,99.90
2019-02-25T17:33:10.033Z,99.90
2019-02-25T17:35:39.210Z,99.90
2019-02-25T17:38:07.898Z,99.90
2019-02-25T17:40:36.568Z,99.90
2019-02-25T17:43:05.952Z,99.90
2019-02-25T17:45:36.797Z,99.90
2019-02-25T17:48:08.462Z,99.90
2019-02-25T17:50:37.144Z,99.90
2019-02-25T17:53:07.460Z,99.90
2019-02-25T17:55:36.746Z,99.90
2019-02-25T17:58:05.618Z,99.90
2019-02-25T18:00:37.431Z,99.90
2019-02-25T18:03:07.189Z,99.90
2019-02-25T18:05:36.415Z,99.90
2019-02-25T18:08:08.087Z,99.90
2019-02-25T18:10:37.159Z,99.90
2019-02-25T18:13:08.070Z,99.90
2019-02-25T18:15:36.160Z,99.90
2019-02-25T18:18:07.143Z,99.90
2019-02-25T18:20:36.586Z,99.90
2019-02-25T18:23:05.816Z,99.90
2019-02-25T18:25:34.539Z,99.90
2019-02-25T18:28:04.405Z,99.90
2019-02-25T18:30:33.863Z,99.90
2019-02-25T18:33:05.006Z,99.90
2019-02-25T18:35:35.760Z,99.90
2019-02-25T18:38:04.933Z,99.90
2019-02-25T18:40:33.958Z,99.90
2019-02-25T18:43:04.417Z,99.90
2019-02-25T18:45:35.619Z,99.90
2019-02-25T18:48:04.771Z,99.90
2019-02-25T18:50:33.494Z,99.90
2019-02-25T18:53:02.134Z,99.90
2019-02-25T18:55:32.105Z,99.90
2019-02-25T18:58:01.307Z,99.90
2019-02-25T19:00:33.742Z,99.90
2019-02-25T19:03:03.053Z,99.90
2019-02-25T19:05:32.904Z,99.90
2019-02-25T19:08:02.187Z,99.90
2019-02-25T19:10:31.099Z,99.90
2019-02-25T19:13:01.024Z,99.90
2019-02-25T19:15:30.152Z,99.90
2019-02-25T19:17:58.792Z,99.90
2019-02-25T19:20:27.571Z,99.90
2019-02-25T19:23:00.487Z,99.90
2019-02-25T19:25:26.475Z,99.90
2019-02-25T19:27:56.632Z,99.90
2019-02-25T19:30:27.360Z,99.90
2019-02-25T19:32:55.813Z,99.90
2019-02-25T19:35:27.793Z,99.90
2019-02-25T19:37:54.917Z,99.90
2019-02-25T19:40:24.704Z,99.90
2019-02-25T19:42:54.240Z,99.90
2019-02-25T19:45:24.020Z,99.90
2019-02-25T19:47:52.687Z,99.90
2019-02-25T19:50:22.660Z,99.90
2019-02-25T19:52:51.334Z,99.90
2019-02-25T19:55:21.030Z,99.90
2019-02-25T19:57:50.261Z,99.90
2019-02-25T20:00:24.985Z,99.90
2019-02-25T20:02:53.516Z,99.90
2019-02-25T20:05:24.021Z,99.90
2019-02-25T20:07:54.586Z,99.90
2019-02-25T20:10:22.954Z,99.90
2019-02-25T20:12:53.237Z,99.90
2019-02-25T20:15:25.129Z,99.90
2019-02-25T20:17:55.302Z,99.90
2019-02-25T20:20:25.691Z,99.90
2019-02-25T20:22:54.261Z,99.90
2019-02-25T20:25:24.528Z,99.90
2019-02-25T20:27:54.969Z,99.90
2019-02-25T20:30:25.697Z,99.90
2019-02-25T20:32:53.844Z,99.90
2019-02-25T20:35:24.366Z,99.90
2019-02-25T20:37:53.717Z,99.90
2019-02-25T20:40:24.113Z,99.90
2019-02-25T20:42:54.138Z,99.90
2019-02-25T20:45:31.046Z,99.90
2019-02-25T20:48:01.805Z,99.90
2019-02-25T20:50:29.951Z,99.90
2019-02-25T20:53:02.323Z,99.90
2019-02-25T20:55:29.439Z,99.90
2019-02-25T20:57:59.106Z,99.90
2019-02-25T21:00:27.781Z,99.90
2019-02-25T21:02:56.397Z,99.90
2019-02-25T21:05:27.281Z,99.90
2019-02-25T21:07:57.122Z,99.90
2019-02-25T21:10:27.367Z,99.90
2019-02-25T21:12:57.150Z,99.90
2019-02-25T21:15:25.986Z,99.90
2019-02-25T21:17:56.509Z,99.90
2019-02-25T21:20:26.089Z,99.90
2019-02-25T21:22:58.211Z,99.90
2019-02-25T21:25:26.969Z,99.90
2019-02-25T21:27:59.175Z,99.90
2019-02-25T21:30:25.829Z,99.90
2019-02-25T21:32:56.377Z,99.90
2019-02-25T21:35:27.538Z,99.90
2019-02-25T21:37:54.747Z,99.90
2019-02-25T21:40:26.536Z,99.90
2019-02-25T21:42:56.628Z,99.90
2019-02-25T21:45:27.092Z,99.90
2019-02-25T21:47:56.640Z,99.90
2019-02-25T21:50:28.382Z,99.90
2019-02-25T21:52:55.731Z,99.90
2019-02-25T21:55:26.179Z,99.90
2019-02-25T21:57:55.422Z,99.90
2019-02-25T22:00:27.150Z,99.90
2019-02-25T22:02:56.186Z,99.90
2019-02-25T22:05:24.677Z,99.90
2019-02-25T22:07:56.656Z,99.90
2019-02-25T22:10:23.481Z,99.90
2019-02-25T22:12:51.996Z,99.90
2019-02-25T22:15:22.397Z,99.90
2019-02-25T22:17:53.154Z,99.90
2019-02-25T22:20:22.620Z,99.90
2019-02-25T22:22:54.408Z,99.90
2019-02-25T22:25:25.357Z,99.90
2019-02-25T22:27:53.813Z,99.90
2019-02-25T22:30:22.305Z,99.90
2019-02-25T22:32:50.812Z,99.90
2019-02-25T22:35:19.272Z,99.90
2019-02-25T22:37:52.075Z,99.90
2019-02-25T22:40:18.894Z,99.90
2019-02-25T22:42:49.884Z,99.90
2019-02-25T22:45:19.138Z,99.90
2019-02-25T22:47:47.775Z,99.90
2019-02-25T22:50:16.261Z,99.90
2019-02-25T22:52:44.806Z,99.90
2019-02-25T22:55:18.357Z,99.90
2019-02-25T22:57:49.118Z,99.90
2019-02-25T23:00:31.685Z,99.90
2019-02-25T23:03:00.379Z,99.90
2019-02-25T23:05:29.027Z,99.90
2019-02-25T23:07:57.482Z,99.90
2019-02-25T23:10:26.096Z,99.90
2019-02-25T23:12:54.729Z,99.90
2019-02-25T23:15:25.211Z,99.90
2019-02-25T23:17:53.390Z,99.90
2019-02-25T23:20:23.067Z,99.90
2019-02-25T23:22:54.761Z,99.90
2019-02-25T23:25:23.201Z,99.90
2019-02-25T23:27:53.492Z,99.90
2019-02-25T23:30:23.464Z,99.90
2019-02-25T23:32:54.457Z,99.90
2019-02-25T23:35:23.080Z,99.90
2019-02-25T23:37:54.433Z,99.90
2019-02-25T23:40:22.980Z,99.90
2019-02-25T23:42:51.556Z,99.90
2019-02-25T23:45:22.676Z,99.90
2019-02-25T23:47:52.653Z,99.90
2019-02-25T23:50:20.649Z,99.90
2019-02-25T23:52:49.184Z,99.90
2019-02-25T23:55:19.667Z,99.90
2019-02-25T23:57:47.921Z,99.90
